sensor_id;sensor_type;location;lat;lon;timestamp;pressure;altitude;pressure_sealevel;temperature;humidity
12949;BME280;6539;49.476;8.484;2023-08-30T00:02:18;99837.72;;;16.93;86.31
12949;BME280;6539;49.476;8.484;2023-08-30T00:05:04;99843.13;;;16.88;86.12
12949;BME280;6539;49.476;8.484;2023-08-30T00:07:52;99836.19;;;16.83;87.21
12949;BME280;6539;49.476;8.484;2023-08-30T00:10:40;99834.03;;;16.78;87.54
12949;BME280;6539;49.476;8.484;2023-08-30T00:13:32;99823.25;;;16.80;88.16
12949;BME280;6539;49.476;8.484;2023-08-30T00:16:18;99831.88;;;16.91;87.69
12949;BME280;6539;49.476;8.484;2023-08-30T00:19:05;99833.41;;;16.83;87.87
12949;BME280;6539;49.476;8.484;2023-08-30T00:21:51;99831.25;;;16.78;88.51
12949;BME280;6539;49.476;8.484;2023-08-30T00:24:37;99833.28;;;16.77;88.94
12949;BME280;6539;49.476;8.484;2023-08-30T00:27:23;99834.66;;;16.73;89.29
12949;BME280;6539;49.476;8.484;2023-08-30T00:30:10;99833.56;;;16.70;90.16
12949;BME280;6539;49.476;8.484;2023-08-30T00:32:57;99842.78;;;16.67;90.86
12949;BME280;6539;49.476;8.484;2023-08-30T00:35:43;99834.47;;;16.58;91.49
12949;BME280;6539;49.476;8.484;2023-08-30T00:38:33;99834.63;;;16.55;92.37
12949;BME280;6539;49.476;8.484;2023-08-30T00:41:23;99828.91;;;16.49;93.10
12949;BME280;6539;49.476;8.484;2023-08-30T00:44:10;99836.78;;;16.51;93.43
12949;BME280;6539;49.476;8.484;2023-08-30T00:46:56;99846.28;;;16.50;93.57
12949;BME280;6539;49.476;8.484;2023-08-30T00:49:47;99837.81;;;16.44;94.42
12949;BME280;6539;49.476;8.484;2023-08-30T00:52:33;99828.91;;;16.49;94.20
12949;BME280;6539;49.476;8.484;2023-08-30T00:55:22;99829.66;;;16.50;94.43
12949;BME280;6539;49.476;8.484;2023-08-30T00:58:09;99822.72;;;16.45;94.69
12949;BME280;6539;49.476;8.484;2023-08-30T01:00:56;99823.34;;;16.49;94.46
12949;BME280;6539;49.476;8.484;2023-08-30T01:03:43;99825.50;;;16.45;94.43
12949;BME280;6539;49.476;8.484;2023-08-30T01:06:29;99820.41;;;16.44;94.93
12949;BME280;6539;49.476;8.484;2023-08-30T01:09:16;99820.72;;;16.46;94.94
12949;BME280;6539;49.476;8.484;2023-08-30T01:12:24;99820.88;;;16.42;95.39
12949;BME280;6539;49.476;8.484;2023-08-30T01:15:18;99811.47;;;16.40;95.86
12949;BME280;6539;49.476;8.484;2023-08-30T01:18:08;99807.47;;;16.41;95.92
12949;BME280;6539;49.476;8.484;2023-08-30T01:20:57;99804.72;;;16.41;96.33
12949;BME280;6539;49.476;8.484;2023-08-30T01:24:01;99807.47;;;16.41;96.73
12949;BME280;6539;49.476;8.484;2023-08-30T01:27:11;99804.72;;;16.41;96.49
12949;BME280;6539;49.476;8.484;2023-08-30T01:29:59;99803.94;;;16.40;96.54
12949;BME280;6539;49.476;8.484;2023-08-30T01:32:49;99797.63;;;16.40;97.16
12949;BME280;6539;49.476;8.484;2023-08-30T01:35:37;99796.09;;;16.39;97.35
12949;BME280;6539;49.476;8.484;2023-08-30T01:38:31;99800.84;;;16.38;97.62
12949;BME280;6539;49.476;8.484;2023-08-30T01:41:20;99796.09;;;16.39;97.61
12949;BME280;6539;49.476;8.484;2023-08-30T01:44:10;99790.69;;;16.35;97.99
12949;BME280;6539;49.476;8.484;2023-08-30T01:46:58;99784.84;;;16.33;98.32
12949;BME280;6539;49.476;8.484;2023-08-30T01:49:45;99789.59;;;16.33;98.73
12949;BME280;6539;49.476;8.484;2023-08-30T01:52:32;99789.16;;;16.34;99.11
12949;BME280;6539;49.476;8.484;2023-08-30T01:55:21;99795.59;;;16.31;99.29
12949;BME280;6539;49.476;8.484;2023-08-30T01:58:08;99780.97;;;16.31;99.77
12949;BME280;6539;49.476;8.484;2023-08-30T02:00:58;99783.31;;;16.32;99.77
12949;BME280;6539;49.476;8.484;2023-08-30T02:03:45;99787.28;;;16.31;100.00
12949;BME280;6539;49.476;8.484;2023-08-30T02:10:02;99778.66;;;16.29;100.00
12949;BME280;6539;49.476;8.484;2023-08-30T02:12:58;99772.81;;;16.27;100.00
12949;BME280;6539;49.476;8.484;2023-08-30T02:15:46;99780.50;;;16.23;100.00
12949;BME280;6539;49.476;8.484;2023-08-30T02:18:35;99771.47;;;16.41;100.00
12949;BME280;6539;49.476;8.484;2023-08-30T02:21:24;99769.63;;;16.47;99.27
12949;BME280;6539;49.476;8.484;2023-08-30T02:24:10;99778.59;;;16.51;98.68
12949;BME280;6539;49.476;8.484;2023-08-30T02:27:01;99778.59;;;16.51;98.08
12949;BME280;6539;49.476;8.484;2023-08-30T02:29:50;99787.66;;;16.51;97.84
12949;BME280;6539;49.476;8.484;2023-08-30T02:32:38;99778.25;;;16.49;98.08
12949;BME280;6539;49.476;8.484;2023-08-30T02:35:24;99787.97;;;16.53;98.36
12949;BME280;6539;49.476;8.484;2023-08-30T02:38:10;99787.03;;;16.56;97.30
12949;BME280;6539;49.476;8.484;2023-08-30T02:40:56;99792.28;;;16.54;97.90
12949;BME280;6539;49.476;8.484;2023-08-30T02:43:42;99794.13;;;16.57;97.54
12949;BME280;6539;49.476;8.484;2023-08-30T02:46:28;99795.22;;;16.60;96.99
12949;BME280;6539;49.476;8.484;2023-08-30T02:49:14;99785.22;;;16.53;97.08
12949;BME280;6539;49.476;8.484;2023-08-30T02:52:02;99785.16;;;16.44;97.93
12949;BME280;6539;49.476;8.484;2023-08-30T02:54:48;99787.31;;;16.40;99.32
12949;BME280;6539;49.476;8.484;2023-08-30T02:57:34;99787.00;;;16.38;100.00
12949;BME280;6539;49.476;8.484;2023-08-30T03:00:20;99786.06;;;16.32;100.00
12949;BME280;6539;49.476;8.484;2023-08-30T03:03:07;99790.97;;;16.28;100.00
12949;BME280;6539;49.476;8.484;2023-08-30T03:05:58;99789.59;;;16.24;100.00
12949;BME280;6539;49.476;8.484;2023-08-30T03:08:44;99787.25;;;16.22;100.00
12949;BME280;6539;49.476;8.484;2023-08-30T03:11:32;99793.75;;;16.19;100.00
12949;BME280;6539;49.476;8.484;2023-08-30T03:14:21;99787.59;;;16.15;100.00
12949;BME280;6539;49.476;8.484;2023-08-30T03:17:07;99790.00;;;16.13;100.00
12949;BME280;6539;49.476;8.484;2023-08-30T03:19:55;99779.56;;;16.08;100.00
12949;BME280;6539;49.476;8.484;2023-08-30T03:22:44;99784.00;;;16.06;100.00
12949;BME280;6539;49.476;8.484;2023-08-30T03:25:32;99791.53;;;16.05;100.00
12949;BME280;6539;49.476;8.484;2023-08-30T03:28:18;99795.53;;;16.04;100.00
12949;BME280;6539;49.476;8.484;2023-08-30T03:31:16;99791.06;;;16.07;100.00
12949;BME280;6539;49.476;8.484;2023-08-30T03:34:04;99803.84;;;16.04;100.00
12949;BME280;6539;49.476;8.484;2023-08-30T03:36:50;99799.22;;;16.01;100.00
12949;BME280;6539;49.476;8.484;2023-08-30T03:39:40;99795.66;;;16.00;100.00
12949;BME280;6539;49.476;8.484;2023-08-30T03:42:26;99790.91;;;16.01;100.00
12949;BME280;6539;49.476;8.484;2023-08-30T03:45:14;99791.22;;;16.03;100.00
12949;BME280;6539;49.476;8.484;2023-08-30T03:48:05;99800.88;;;15.98;100.00
12949;BME280;6539;49.476;8.484;2023-08-30T03:50:55;99799.69;;;15.99;100.00
12949;BME280;6539;49.476;8.484;2023-08-30T03:53:43;99811.66;;;15.96;100.00
12949;BME280;6539;49.476;8.484;2023-08-30T03:56:31;99793.94;;;15.94;100.00
12949;BME280;6539;49.476;8.484;2023-08-30T03:59:17;99793.06;;;15.97;100.00
12949;BME280;6539;49.476;8.484;2023-08-30T04:02:03;99793.94;;;15.94;100.00
12949;BME280;6539;49.476;8.484;2023-08-30T04:04:52;99793.19;;;15.93;100.00
12949;BME280;6539;49.476;8.484;2023-08-30T04:07:38;99797.81;;;15.96;100.00
12949;BME280;6539;49.476;8.484;2023-08-30T04:10:24;99795.50;;;15.95;100.00
12949;BME280;6539;49.476;8.484;2023-08-30T04:13:10;99795.19;;;15.93;100.00
12949;BME280;6539;49.476;8.484;2023-08-30T04:15:59;99787.16;;;15.86;100.00
12949;BME280;6539;49.476;8.484;2023-08-30T04:18:47;99781.16;;;15.87;100.00
12949;BME280;6539;49.476;8.484;2023-08-30T04:21:33;99785.63;;;15.85;100.00
12949;BME280;6539;49.476;8.484;2023-08-30T04:24:22;99786.53;;;15.82;100.00
12949;BME280;6539;49.476;8.484;2023-08-30T04:27:08;99789.13;;;15.76;100.00
12949;BME280;6539;49.476;8.484;2023-08-30T04:29:56;99799.44;;;15.76;100.00
12949;BME280;6539;49.476;8.484;2023-08-30T04:32:42;99795.09;;;15.75;100.00
12949;BME280;6539;49.476;8.484;2023-08-30T04:35:31;99797.09;;;15.74;100.00
12949;BME280;6539;49.476;8.484;2023-08-30T04:38:17;99795.88;;;15.75;100.00
12949;BME280;6539;49.476;8.484;2023-08-30T04:41:09;99789.13;;;15.76;100.00
12949;BME280;6539;49.476;8.484;2023-08-30T04:43:55;99791.44;;;15.78;100.00
12949;BME280;6539;49.476;8.484;2023-08-30T04:46:43;99793.59;;;15.74;100.00
12949;BME280;6539;49.476;8.484;2023-08-30T04:49:31;99781.75;;;15.73;100.00
12949;BME280;6539;49.476;8.484;2023-08-30T04:52:17;99776.66;;;15.72;100.00
12949;BME280;6539;49.476;8.484;2023-08-30T04:55:06;99781.88;;;15.70;100.00
12949;BME280;6539;49.476;8.484;2023-08-30T04:57:53;99781.09;;;15.69;100.00
12949;BME280;6539;49.476;8.484;2023-08-30T05:00:39;99786.66;;;15.69;100.00
12949;BME280;6539;49.476;8.484;2023-08-30T05:03:27;99782.78;;;15.67;100.00
12949;BME280;6539;49.476;8.484;2023-08-30T05:06:13;99784.00;;;15.66;100.00
12949;BME280;6539;49.476;8.484;2023-08-30T05:09:02;99788.31;;;15.67;100.00
12949;BME280;6539;49.476;8.484;2023-08-30T05:11:51;99792.63;;;15.68;100.00
12949;BME280;6539;49.476;8.484;2023-08-30T05:14:37;99793.22;;;15.63;100.00
12949;BME280;6539;49.476;8.484;2023-08-30T05:17:25;99788.91;;;15.62;100.00
12949;BME280;6539;49.476;8.484;2023-08-30T05:20:12;99786.91;;;15.62;100.00
12949;BME280;6539;49.476;8.484;2023-08-30T05:23:01;99786.13;;;15.62;100.00
12949;BME280;6539;49.476;8.484;2023-08-30T05:25:48;99784.00;;;15.66;100.00
12949;BME280;6539;49.476;8.484;2023-08-30T05:28:34;99787.75;;;15.72;100.00
12949;BME280;6539;49.476;8.484;2023-08-30T05:31:20;99787.41;;;15.70;100.00
12949;BME280;6539;49.476;8.484;2023-08-30T05:34:06;99798.94;;;15.68;100.00
12949;BME280;6539;49.476;8.484;2023-08-30T05:36:55;99791.25;;;15.72;100.00
12949;BME280;6539;49.476;8.484;2023-08-30T05:39:43;99791.72;;;15.71;100.00
12949;BME280;6539;49.476;8.484;2023-08-30T05:42:29;99781.44;;;15.71;100.00
12949;BME280;6539;49.476;8.484;2023-08-30T05:45:15;99778.19;;;15.73;100.00
12949;BME280;6539;49.476;8.484;2023-08-30T05:48:04;99781.09;;;15.69;100.00
12949;BME280;6539;49.476;8.484;2023-08-30T05:50:50;99782.50;;;15.74;100.00
12949;BME280;6539;49.476;8.484;2023-08-30T05:53:39;99786.53;;;15.82;100.00
12949;BME280;6539;49.476;8.484;2023-08-30T05:56:25;99791.81;;;15.89;100.00
12949;BME280;6539;49.476;8.484;2023-08-30T05:59:13;99789.03;;;15.89;100.00
12949;BME280;6539;49.476;8.484;2023-08-30T06:02:02;99788.41;;;15.94;100.00
12949;BME280;6539;49.476;8.484;2023-08-30T06:04:49;99797.34;;;15.89;100.00
12949;BME280;6539;49.476;8.484;2023-08-30T06:07:38;99792.44;;;15.93;100.00
12949;BME280;6539;49.476;8.484;2023-08-30T06:10:24;99787.19;;;15.95;100.00
12949;BME280;6539;49.476;8.484;2023-08-30T06:13:18;99779.81;;;15.92;100.00
12949;BME280;6539;49.476;8.484;2023-08-30T06:16:06;99774.56;;;15.94;100.00
12949;BME280;6539;49.476;8.484;2023-08-30T06:18:53;99787.50;;;15.97;100.00
12949;BME280;6539;49.476;8.484;2023-08-30T06:21:39;99774.28;;;16.01;100.00
12949;BME280;6539;49.476;8.484;2023-08-30T06:24:25;99781.81;;;16.00;100.00
12949;BME280;6539;49.476;8.484;2023-08-30T06:27:13;99784.91;;;16.02;100.00
12949;BME280;6539;49.476;8.484;2023-08-30T06:30:02;99792.00;;;16.03;100.00
12949;BME280;6539;49.476;8.484;2023-08-30T06:32:53;99793.53;;;16.04;100.00
12949;BME280;6539;49.476;8.484;2023-08-30T06:35:39;99785.69;;;16.03;100.00
12949;BME280;6539;49.476;8.484;2023-08-30T06:38:25;99793.41;;;16.08;100.00
12949;BME280;6539;49.476;8.484;2023-08-30T06:41:13;99795.06;;;16.06;100.00
12949;BME280;6539;49.476;8.484;2023-08-30T06:43:59;99812.31;;;16.10;99.98
12949;BME280;6539;49.476;8.484;2023-08-30T06:46:46;99803.22;;;16.09;100.00
12949;BME280;6539;49.476;8.484;2023-08-30T06:49:32;99806.94;;;16.06;99.59
12949;BME280;6539;49.476;8.484;2023-08-30T06:52:18;99793.38;;;15.99;100.00
12949;BME280;6539;49.476;8.484;2023-08-30T06:55:04;99784.75;;;15.97;100.00
12949;BME280;6539;49.476;8.484;2023-08-30T06:57:50;99793.69;;;16.01;100.00
12949;BME280;6539;49.476;8.484;2023-08-30T07:00:36;99799.25;;;16.10;100.00
12949;BME280;6539;49.476;8.484;2023-08-30T07:03:25;99800.81;;;16.20;99.02
12949;BME280;6539;49.476;8.484;2023-08-30T07:06:11;99796.81;;;16.21;98.51
12949;BME280;6539;49.476;8.484;2023-08-30T07:08:57;99788.34;;;16.25;98.55
12949;BME280;6539;49.476;8.484;2023-08-30T07:11:43;99780.53;;;16.32;97.96
12949;BME280;6539;49.476;8.484;2023-08-30T07:14:35;99771.91;;;16.30;96.92
12949;BME280;6539;49.476;8.484;2023-08-30T07:17:21;99770.19;;;16.33;97.25
12949;BME280;6539;49.476;8.484;2023-08-30T07:20:08;99771.59;;;16.37;97.21
12949;BME280;6539;49.476;8.484;2023-08-30T07:22:56;99763.31;;;16.46;96.60
12949;BME280;6539;49.476;8.484;2023-08-30T07:25:45;99763.97;;;16.59;96.14
12949;BME280;6539;49.476;8.484;2023-08-30T07:28:31;99769.34;;;16.72;94.24
12949;BME280;6539;49.476;8.484;2023-08-30T07:31:17;99755.97;;;16.70;94.18
12949;BME280;6539;49.476;8.484;2023-08-30T07:34:04;99767.03;;;16.70;94.79
12949;BME280;6539;49.476;8.484;2023-08-30T07:36:50;99773.66;;;16.73;94.00
12949;BME280;6539;49.476;8.484;2023-08-30T07:39:41;99761.03;;;16.81;93.22
12949;BME280;6539;49.476;8.484;2023-08-30T07:42:29;99756.72;;;16.89;92.71
12949;BME280;6539;49.476;8.484;2023-08-30T07:45:18;99759.66;;;16.95;92.47
12949;BME280;6539;49.476;8.484;2023-08-30T07:48:04;99763.00;;;17.08;91.71
12949;BME280;6539;49.476;8.484;2023-08-30T07:50:50;99770.25;;;17.14;90.55
12949;BME280;6539;49.476;8.484;2023-08-30T07:53:39;99775.75;;;17.23;90.12
12949;BME280;6539;49.476;8.484;2023-08-30T07:56:25;99768.50;;;17.26;89.01
12949;BME280;6539;49.476;8.484;2023-08-30T07:59:14;99772.25;;;17.23;89.92
12949;BME280;6539;49.476;8.484;2023-08-30T08:02:00;99768.03;;;17.27;89.75
12949;BME280;6539;49.476;8.484;2023-08-30T08:04:46;99768.03;;;17.36;88.81
12949;BME280;6539;49.476;8.484;2023-08-30T08:07:35;99767.53;;;17.47;88.56
12949;BME280;6539;49.476;8.484;2023-08-30T08:10:21;99772.28;;;17.65;87.67
12949;BME280;6539;49.476;8.484;2023-08-30T08:13:08;99779.78;;;17.82;86.04
12949;BME280;6539;49.476;8.484;2023-08-30T08:15:58;99782.22;;;17.89;85.29
12949;BME280;6539;49.476;8.484;2023-08-30T08:18:44;99785.03;;;17.80;85.48
12949;BME280;6539;49.476;8.484;2023-08-30T08:21:32;99779.25;;;17.93;85.47
12949;BME280;6539;49.476;8.484;2023-08-30T08:24:23;99783.22;;;18.01;84.81
12949;BME280;6539;49.476;8.484;2023-08-30T08:27:09;99788.19;;;17.97;84.51
12949;BME280;6539;49.476;8.484;2023-08-30T08:29:55;99793.28;;;17.98;85.13
12949;BME280;6539;49.476;8.484;2023-08-30T08:32:41;99785.53;;;18.02;84.95
12949;BME280;6539;49.476;8.484;2023-08-30T08:35:27;99795.69;;;18.05;85.10
12949;BME280;6539;49.476;8.484;2023-08-30T08:38:18;99791.81;;;18.12;84.69
12949;BME280;6539;49.476;8.484;2023-08-30T08:41:05;99790.59;;;18.13;84.25
12949;BME280;6539;49.476;8.484;2023-08-30T08:43:55;99795.81;;;18.20;84.83
12949;BME280;6539;49.476;8.484;2023-08-30T08:46:41;99785.19;;;18.33;83.96
12949;BME280;6539;49.476;8.484;2023-08-30T08:49:28;99778.41;;;18.34;83.33
12949;BME280;6539;49.476;8.484;2023-08-30T08:52:18;99787.53;;;18.35;82.93
12949;BME280;6539;49.476;8.484;2023-08-30T08:55:05;99786.53;;;18.47;81.65
12949;BME280;6539;49.476;8.484;2023-08-30T08:57:54;99781.78;;;18.62;81.13
12949;BME280;6539;49.476;8.484;2023-08-30T09:00:42;99784.56;;;18.62;80.98
12949;BME280;6539;49.476;8.484;2023-08-30T09:03:28;99785.84;;;18.61;80.86
12949;BME280;6539;49.476;8.484;2023-08-30T09:06:15;99780.91;;;18.56;80.95
12949;BME280;6539;49.476;8.484;2023-08-30T09:09:08;99787.66;;;18.64;81.19
12949;BME280;6539;49.476;8.484;2023-08-30T09:11:54;99782.38;;;18.66;80.37
12949;BME280;6539;49.476;8.484;2023-08-30T09:14:52;99790.94;;;18.77;79.84
12949;BME280;6539;49.476;8.484;2023-08-30T09:17:39;99784.94;;;18.93;78.10
12949;BME280;6539;49.476;8.484;2023-08-30T09:20:25;99792.16;;;18.99;76.78
12949;BME280;6539;49.476;8.484;2023-08-30T09:23:23;99795.69;;;19.00;77.41
12949;BME280;6539;49.476;8.484;2023-08-30T09:26:11;99791.09;;;19.12;76.98
12949;BME280;6539;49.476;8.484;2023-08-30T09:29:04;99785.53;;;19.26;76.55
12949;BME280;6539;49.476;8.484;2023-08-30T09:31:52;99784.97;;;19.22;76.78
12949;BME280;6539;49.476;8.484;2023-08-30T09:34:45;99781.69;;;19.24;75.81
12949;BME280;6539;49.476;8.484;2023-08-30T09:37:32;99779.16;;;19.35;75.28
12949;BME280;6539;49.476;8.484;2023-08-30T09:40:21;99775.31;;;19.47;74.45
12949;BME280;6539;49.476;8.484;2023-08-30T09:43:08;99766.94;;;19.61;73.38
12949;BME280;6539;49.476;8.484;2023-08-30T09:45:57;99766.47;;;19.63;73.22
12949;BME280;6539;49.476;8.484;2023-08-30T09:48:44;99759.25;;;19.56;73.60
12949;BME280;6539;49.476;8.484;2023-08-30T09:51:30;99757.91;;;19.66;73.54
12949;BME280;6539;49.476;8.484;2023-08-30T09:54:25;99763.25;;;19.85;72.51
12949;BME280;6539;49.476;8.484;2023-08-30T09:57:15;99770.66;;;20.08;71.35
12949;BME280;6539;49.476;8.484;2023-08-30T10:00:07;99762.19;;;20.17;70.58
12949;BME280;6539;49.476;8.484;2023-08-30T10:03:00;99755.25;;;20.47;69.63
12949;BME280;6539;49.476;8.484;2023-08-30T10:05:49;99756.09;;;20.53;68.30
12949;BME280;6539;49.476;8.484;2023-08-30T10:08:37;99751.09;;;20.57;67.63
12949;BME280;6539;49.476;8.484;2023-08-30T10:11:28;99761.56;;;20.42;68.68
12949;BME280;6539;49.476;8.484;2023-08-30T10:14:17;99749.13;;;20.23;69.32
12949;BME280;6539;49.476;8.484;2023-08-30T10:17:05;99748.66;;;20.24;69.47
12949;BME280;6539;49.476;8.484;2023-08-30T10:19:52;99747.47;;;20.31;68.92
12949;BME280;6539;49.476;8.484;2023-08-30T10:22:44;99732.47;;;20.28;69.01
12949;BME280;6539;49.476;8.484;2023-08-30T10:25:33;99732.69;;;20.45;68.66
12949;BME280;6539;49.476;8.484;2023-08-30T10:28:21;99724.78;;;20.64;68.24
12949;BME280;6539;49.476;8.484;2023-08-30T10:31:09;99730.19;;;20.73;67.07
12949;BME280;6539;49.476;8.484;2023-08-30T10:33:55;99712.59;;;20.61;67.05
12949;BME280;6539;49.476;8.484;2023-08-30T10:36:45;99707.13;;;20.72;66.62
12949;BME280;6539;49.476;8.484;2023-08-30T10:39:42;99714.91;;;20.88;65.69
12949;BME280;6539;49.476;8.484;2023-08-30T10:42:29;99724.88;;;21.52;61.49
12949;BME280;6539;49.476;8.484;2023-08-30T10:45:23;99715.81;;;21.62;61.41
12949;BME280;6539;49.476;8.484;2023-08-30T10:48:11;99711.75;;;22.00;60.64
12949;BME280;6539;49.476;8.484;2023-08-30T10:50:57;99721.56;;;22.32;58.55
12949;BME280;6539;49.476;8.484;2023-08-30T10:53:43;99710.31;;;22.74;57.50
12949;BME280;6539;49.476;8.484;2023-08-30T10:56:30;99705.47;;;22.86;55.73
12949;BME280;6539;49.476;8.484;2023-08-30T10:59:21;99707.03;;;22.82;56.65
12949;BME280;6539;49.476;8.484;2023-08-30T11:02:10;99706.47;;;22.66;56.17
12949;BME280;6539;49.476;8.484;2023-08-30T11:04:58;99701.94;;;23.08;54.15
12949;BME280;6539;49.476;8.484;2023-08-30T11:07:45;99700.88;;;22.77;53.51
12949;BME280;6539;49.476;8.484;2023-08-30T11:10:37;99690.50;;;23.11;52.60
12949;BME280;6539;49.476;8.484;2023-08-30T11:13:26;99692.28;;;23.25;52.29
12949;BME280;6539;49.476;8.484;2023-08-30T11:16:12;99698.38;;;23.68;50.58
12949;BME280;6539;49.476;8.484;2023-08-30T11:19:05;99685.63;;;23.89;49.18
12949;BME280;6539;49.476;8.484;2023-08-30T11:21:51;99682.59;;;23.76;49.70
12949;BME280;6539;49.476;8.484;2023-08-30T11:24:37;99681.84;;;23.54;49.55
12949;BME280;6539;49.476;8.484;2023-08-30T11:27:28;99674.47;;;23.56;49.87
12949;BME280;6539;49.476;8.484;2023-08-30T11:30:16;99673.16;;;23.74;50.31
12949;BME280;6539;49.476;8.484;2023-08-30T11:33:04;99667.25;;;23.88;47.99
12949;BME280;6539;49.476;8.484;2023-08-30T11:35:54;99660.34;;;23.95;48.58
12949;BME280;6539;49.476;8.484;2023-08-30T11:38:40;99664.53;;;24.40;47.09
12949;BME280;6539;49.476;8.484;2023-08-30T11:41:30;99658.38;;;24.47;47.86
12949;BME280;6539;49.476;8.484;2023-08-30T11:44:17;99657.72;;;24.71;46.72
12949;BME280;6539;49.476;8.484;2023-08-30T11:47:05;99648.59;;;25.00;45.91
12949;BME280;6539;49.476;8.484;2023-08-30T11:49:57;99642.16;;;24.75;46.55
12949;BME280;6539;49.476;8.484;2023-08-30T11:52:46;99651.53;;;25.19;45.03
12949;BME280;6539;49.476;8.484;2023-08-30T11:55:32;99642.25;;;24.94;44.58
12949;BME280;6539;49.476;8.484;2023-08-30T11:58:23;99649.72;;;25.51;44.11
12949;BME280;6539;49.476;8.484;2023-08-30T12:01:11;99654.69;;;25.88;42.35
12949;BME280;6539;49.476;8.484;2023-08-30T12:04:11;99643.91;;;25.43;43.43
12949;BME280;6539;49.476;8.484;2023-08-30T12:06:57;99632.44;;;25.65;41.98
12949;BME280;6539;49.476;8.484;2023-08-30T12:09:47;99627.94;;;25.27;42.98
12949;BME280;6539;49.476;8.484;2023-08-30T12:12:43;99638.69;;;25.23;42.97
12949;BME280;6539;49.476;8.484;2023-08-30T12:15:30;99636.06;;;24.66;44.08
12949;BME280;6539;49.476;8.484;2023-08-30T12:18:28;99634.19;;;24.39;44.77
12949;BME280;6539;49.476;8.484;2023-08-30T12:21:14;99621.72;;;24.34;44.21
12949;BME280;6539;49.476;8.484;2023-08-30T12:24:01;99623.78;;;24.74;43.00
12949;BME280;6539;49.476;8.484;2023-08-30T12:26:49;99623.94;;;24.47;44.45
12949;BME280;6539;49.476;8.484;2023-08-30T12:29:35;99628.19;;;24.07;46.88
12949;BME280;6539;49.476;8.484;2023-08-30T12:32:22;99608.28;;;24.21;46.99
12949;BME280;6539;49.476;8.484;2023-08-30T12:35:10;99611.44;;;24.88;45.13
12949;BME280;6539;49.476;8.484;2023-08-30T12:37:59;99606.59;;;25.13;42.24
12949;BME280;6539;49.476;8.484;2023-08-30T12:40:53;99617.13;;;24.72;42.31
12949;BME280;6539;49.476;8.484;2023-08-30T12:43:44;99625.94;;;24.52;42.66
12949;BME280;6539;49.476;8.484;2023-08-30T12:46:30;99617.13;;;24.72;42.31
12949;BME280;6539;49.476;8.484;2023-08-30T12:49:19;99608.53;;;25.24;41.40
12949;BME280;6539;49.476;8.484;2023-08-30T12:52:05;99605.13;;;25.85;39.83
12949;BME280;6539;49.476;8.484;2023-08-30T12:54:51;99600.19;;;25.66;39.81
12949;BME280;6539;49.476;8.484;2023-08-30T12:57:39;99606.13;;;25.63;39.27
12949;BME280;6539;49.476;8.484;2023-08-30T13:00:25;99610.31;;;24.62;41.52
12949;BME280;6539;49.476;8.484;2023-08-30T13:03:11;99607.53;;;24.97;41.08
12949;BME280;6539;49.476;8.484;2023-08-30T13:06:00;99610.34;;;25.51;40.50
12949;BME280;6539;49.476;8.484;2023-08-30T13:08:49;99619.84;;;25.18;40.96
12949;BME280;6539;49.476;8.484;2023-08-30T13:11:35;99602.84;;;24.75;41.84
12949;BME280;6539;49.476;8.484;2023-08-30T13:14:21;99606.22;;;24.98;41.25
12949;BME280;6539;49.476;8.484;2023-08-30T13:17:07;99600.22;;;25.13;40.96
12949;BME280;6539;49.476;8.484;2023-08-30T13:19:53;99597.81;;;25.95;40.05
12949;BME280;6539;49.476;8.484;2023-08-30T13:22:42;99593.88;;;26.59;38.87
12949;BME280;6539;49.476;8.484;2023-08-30T13:25:31;99592.75;;;27.44;37.13
12949;BME280;6539;49.476;8.484;2023-08-30T13:28:19;99594.16;;;27.90;34.57
12949;BME280;6539;49.476;8.484;2023-08-30T13:31:08;99597.94;;;27.40;35.06
12949;BME280;6539;49.476;8.484;2023-08-30T13:33:56;99589.81;;;27.76;33.99
12949;BME280;6539;49.476;8.484;2023-08-30T13:36:42;99602.06;;;27.65;33.57
12949;BME280;6539;49.476;8.484;2023-08-30T13:39:31;99587.66;;;27.69;32.74
12949;BME280;6539;49.476;8.484;2023-08-30T13:42:19;99588.16;;;27.93;33.21
12949;BME280;6539;49.476;8.484;2023-08-30T13:45:07;99579.41;;;27.58;33.41
12949;BME280;6539;49.476;8.484;2023-08-30T13:47:55;99589.28;;;27.90;33.62
12949;BME280;6539;49.476;8.484;2023-08-30T13:50:42;99576.13;;;27.80;33.64
12949;BME280;6539;49.476;8.484;2023-08-30T13:53:28;99573.41;;;28.14;33.15
12949;BME280;6539;49.476;8.484;2023-08-30T13:56:14;99578.13;;;28.65;32.15
12949;BME280;6539;49.476;8.484;2023-08-30T13:59:00;99584.28;;;27.57;33.03
12949;BME280;6539;49.476;8.484;2023-08-30T14:01:46;99574.38;;;27.25;33.17
12949;BME280;6539;49.476;8.484;2023-08-30T14:04:36;99584.16;;;27.50;32.50
12949;BME280;6539;49.476;8.484;2023-08-30T14:07:27;99569.22;;;27.55;32.30
12949;BME280;6539;49.476;8.484;2023-08-30T14:10:13;99575.25;;;26.56;33.37
12949;BME280;6539;49.476;8.484;2023-08-30T14:13:04;99568.56;;;25.60;35.17
12949;BME280;6539;49.476;8.484;2023-08-30T14:15:51;99573.63;;;25.43;35.65
12949;BME280;6539;49.476;8.484;2023-08-30T14:18:37;99579.75;;;25.18;36.31
12949;BME280;6539;49.476;8.484;2023-08-30T14:21:23;99569.91;;;25.06;36.45
12949;BME280;6539;49.476;8.484;2023-08-30T14:24:12;99582.81;;;24.90;36.79
12949;BME280;6539;49.476;8.484;2023-08-30T14:27:00;99576.75;;;24.80;36.65
12949;BME280;6539;49.476;8.484;2023-08-30T14:29:49;99582.38;;;24.80;36.78
12949;BME280;6539;49.476;8.484;2023-08-30T14:32:39;99576.03;;;24.74;37.51
12949;BME280;6539;49.476;8.484;2023-08-30T14:35:25;99579.88;;;24.31;38.12
12949;BME280;6539;49.476;8.484;2023-08-30T14:38:12;99573.09;;;24.15;38.54
12949;BME280;6539;49.476;8.484;2023-08-30T14:41:00;99581.97;;;24.24;38.63
12949;BME280;6539;49.476;8.484;2023-08-30T14:43:46;99576.16;;;24.11;38.73
12949;BME280;6539;49.476;8.484;2023-08-30T14:46:33;99584.59;;;24.11;38.56
12949;BME280;6539;49.476;8.484;2023-08-30T14:49:19;99578.44;;;24.18;37.77
12949;BME280;6539;49.476;8.484;2023-08-30T14:52:05;99581.28;;;24.13;38.28
12949;BME280;6539;49.476;8.484;2023-08-30T14:54:56;99572.66;;;24.00;38.06
12949;BME280;6539;49.476;8.484;2023-08-30T14:57:42;99572.22;;;23.79;38.92
12949;BME280;6539;49.476;8.484;2023-08-30T15:00:28;99557.19;;;23.82;38.81
12949;BME280;6539;49.476;8.484;2023-08-30T15:03:14;99566.13;;;23.81;38.27